createdAt,value
2018-07-07T00:00:02.712Z,5.27
2018-07-07T00:02:30.030Z,4.67
2018-07-07T00:04:58.198Z,3.80
2018-07-07T00:07:25.506Z,3.60
2018-07-07T00:09:52.824Z,3.57
2018-07-07T00:12:20.201Z,4.03
2018-07-07T00:14:47.484Z,3.40
2018-07-07T00:17:14.948Z,3.70
2018-07-07T00:19:42.263Z,3.50
2018-07-07T00:22:09.658Z,3.73
2018-07-07T00:24:37.023Z,3.67
2018-07-07T00:27:04.683Z,3.40
2018-07-07T00:29:32.005Z,4.10
2018-07-07T00:31:59.505Z,3.53
2018-07-07T00:34:26.857Z,3.77
2018-07-07T00:36:54.369Z,3.77
2018-07-07T00:39:21.874Z,3.80
2018-07-07T00:41:49.158Z,3.83
2018-07-07T00:44:16.536Z,3.70
2018-07-07T00:46:43.853Z,3.80
2018-07-07T00:49:11.215Z,3.33
2018-07-07T00:51:38.615Z,3.57
2018-07-07T00:54:05.933Z,3.67
2018-07-07T00:56:33.304Z,4.10
2018-07-07T00:59:00.634Z,3.50
2018-07-07T01:01:28.023Z,3.57
2018-07-07T01:03:55.309Z,3.60
2018-07-07T01:06:23.989Z,3.67
2018-07-07T01:08:51.981Z,3.20
2018-07-07T01:11:19.480Z,4.00
2018-07-07T01:13:46.890Z,3.30
2018-07-07T01:16:14.205Z,3.47
2018-07-07T01:18:41.515Z,4.20
2018-07-07T01:21:08.850Z,3.77
2018-07-07T01:23:36.138Z,3.70
2018-07-07T01:26:03.499Z,3.50
2018-07-07T01:28:30.826Z,3.80
2018-07-07T01:30:58.101Z,3.53
2018-07-07T01:33:25.590Z,4.00
2018-07-07T01:35:52.807Z,3.40
2018-07-07T01:38:20.066Z,3.27
2018-07-07T01:40:47.910Z,4.40
2018-07-07T01:43:15.415Z,3.40
2018-07-07T01:45:43.422Z,3.33
2018-07-07T01:48:10.662Z,3.40
2018-07-07T01:50:37.951Z,3.43
2018-07-07T01:55:39.174Z,3.87
2018-07-07T01:58:07.776Z,3.73
2018-07-07T02:00:35.366Z,3.40
2018-07-07T02:03:02.663Z,3.20
2018-07-07T02:05:30.230Z,3.97
2018-07-07T02:07:57.542Z,3.40
2018-07-07T02:10:24.886Z,3.50
2018-07-07T02:12:52.186Z,2.83
2018-07-07T02:15:19.530Z,3.20
2018-07-07T02:17:46.862Z,3.47
2018-07-07T02:20:14.187Z,3.03
2018-07-07T02:22:41.462Z,3.00
2018-07-07T02:25:08.790Z,3.90
2018-07-07T02:27:36.041Z,3.70
2018-07-07T02:30:03.727Z,3.40
2018-07-07T02:32:31.035Z,3.10
2018-07-07T02:34:58.978Z,4.00
2018-07-07T02:37:26.291Z,3.10
2018-07-07T02:39:53.647Z,3.10
2018-07-07T02:42:21.554Z,3.90
2018-07-07T02:44:48.862Z,3.13
2018-07-07T02:47:16.241Z,3.00
2018-07-07T02:49:43.565Z,3.40
2018-07-07T02:52:10.830Z,3.43
2018-07-07T02:54:38.118Z,4.03
2018-07-07T02:57:05.484Z,2.93
2018-07-07T02:59:32.771Z,3.40
2018-07-07T03:02:00.089Z,3.07
2018-07-07T03:04:27.368Z,3.10
2018-07-07T03:06:54.703Z,3.37
2018-07-07T03:09:22.114Z,3.17
2018-07-07T03:11:49.630Z,3.20
2018-07-07T03:14:16.934Z,3.80
2018-07-07T03:16:44.292Z,3.47
2018-07-07T03:19:12.130Z,3.57
2018-07-07T03:21:39.390Z,3.93
2018-07-07T03:24:06.914Z,2.80
2018-07-07T03:26:34.280Z,3.13
2018-07-07T03:29:01.558Z,3.60
2018-07-07T03:31:28.886Z,3.40
2018-07-07T03:33:56.130Z,3.60
2018-07-07T03:36:23.521Z,3.40
2018-07-07T03:38:51.394Z,3.40
2018-07-07T03:41:18.769Z,3.37
2018-07-07T03:43:46.159Z,3.07
2018-07-07T03:46:13.466Z,2.80
2018-07-07T03:48:40.819Z,2.53
2018-07-07T03:51:08.169Z,3.13
2018-07-07T03:53:35.440Z,2.77
2018-07-07T03:56:02.782Z,2.23
2018-07-07T03:58:30.670Z,2.70
2018-07-07T04:00:57.967Z,2.90
2018-07-07T04:03:25.310Z,2.73
2018-07-07T04:05:52.628Z,2.93
2018-07-07T04:08:19.914Z,3.17
2018-07-07T04:10:47.154Z,3.00
2018-07-07T04:13:14.619Z,3.40
2018-07-07T04:15:41.841Z,2.87
2018-07-07T04:18:09.141Z,2.70
2018-07-07T04:20:37.013Z,2.73
2018-07-07T04:23:04.519Z,2.73
2018-07-07T04:25:31.773Z,2.80
2018-07-07T04:27:59.102Z,2.90
2018-07-07T04:30:26.427Z,3.07
2018-07-07T04:32:53.758Z,2.50
2018-07-07T04:35:21.031Z,2.47
2018-07-07T04:37:48.347Z,2.50
2018-07-07T04:40:15.703Z,3.30
2018-07-07T04:42:43.063Z,2.93
2018-07-07T04:45:10.344Z,2.63
2018-07-07T04:47:37.774Z,2.30
2018-07-07T04:50:05.228Z,3.40
2018-07-07T04:52:32.550Z,2.20
2018-07-07T04:54:59.815Z,2.53
2018-07-07T04:57:27.228Z,2.67
2018-07-07T04:59:54.527Z,2.27
2018-07-07T05:02:21.856Z,2.30
2018-07-07T05:04:49.144Z,2.20
2018-07-07T05:07:16.416Z,2.53
2018-07-07T05:09:43.768Z,2.60
2018-07-07T05:12:11.050Z,2.10
2018-07-07T05:14:39.870Z,2.00
2018-07-07T05:17:07.267Z,1.90
2018-07-07T05:19:34.530Z,1.43
2018-07-07T05:22:01.892Z,1.70
2018-07-07T05:24:29.212Z,1.47
2018-07-07T05:26:56.503Z,1.60
2018-07-07T05:29:23.798Z,1.63
2018-07-07T05:31:51.146Z,1.67
2018-07-07T05:34:18.395Z,1.60
2018-07-07T05:36:45.737Z,1.40
2018-07-07T05:39:13.007Z,1.43
2018-07-07T05:41:40.381Z,1.23
2018-07-07T05:44:07.750Z,1.13
2018-07-07T05:46:35.031Z,1.20
2018-07-07T05:49:02.458Z,1.40
2018-07-07T05:51:29.949Z,1.10
2018-07-07T05:53:57.351Z,1.30
2018-07-07T05:56:24.670Z,1.47
2018-07-07T05:58:52.113Z,1.57
2018-07-07T06:01:19.390Z,1.00
2018-07-07T06:03:46.693Z,1.53
2018-07-07T06:06:14.064Z,1.30
2018-07-07T06:08:41.401Z,1.40
2018-07-07T06:11:08.711Z,2.70
2018-07-07T06:13:36.010Z,1.23
2018-07-07T06:16:03.306Z,1.03
2018-07-07T06:18:30.577Z,1.00
2018-07-07T06:20:57.902Z,1.17
2018-07-07T06:23:25.283Z,1.10
2018-07-07T06:25:52.559Z,1.40
2018-07-07T06:28:19.848Z,1.30
2018-07-07T06:30:47.250Z,1.47
2018-07-07T06:33:14.570Z,0.90
2018-07-07T06:35:42.018Z,1.20
2018-07-07T06:38:09.344Z,0.97
2018-07-07T06:40:36.630Z,1.20
2018-07-07T06:43:03.944Z,0.80
2018-07-07T06:45:31.215Z,1.83
2018-07-07T06:47:58.438Z,2.10
2018-07-07T06:50:25.656Z,1.40
2018-07-07T06:52:53.652Z,0.90
2018-07-07T06:55:20.937Z,1.10
2018-07-07T06:57:49.280Z,1.00
2018-07-07T07:00:16.562Z,1.00
2018-07-07T07:02:44.078Z,0.90
2018-07-07T07:05:11.430Z,1.00
2018-07-07T07:07:38.857Z,1.03
2018-07-07T07:10:06.146Z,1.33
2018-07-07T07:12:33.537Z,0.93
2018-07-07T07:15:00.975Z,1.20
2018-07-07T07:17:28.262Z,1.30
2018-07-07T07:19:55.594Z,1.00
2018-07-07T07:22:22.909Z,0.80
2018-07-07T07:24:50.149Z,1.00
2018-07-07T07:27:17.801Z,1.10
2018-07-07T07:29:45.236Z,0.67
2018-07-07T07:32:12.492Z,1.13
2018-07-07T07:34:39.857Z,1.27
2018-07-07T07:37:07.142Z,1.07
2018-07-07T07:39:34.413Z,0.90
2018-07-07T07:42:01.793Z,1.17
2018-07-07T07:44:29.094Z,1.23
2018-07-07T07:46:56.475Z,0.80
2018-07-07T07:49:23.776Z,0.97
2018-07-07T07:51:51.097Z,1.10
2018-07-07T07:54:18.390Z,1.33
2018-07-07T07:56:45.826Z,1.50
2018-07-07T07:59:13.074Z,1.33
2018-07-07T08:01:40.407Z,2.17
2018-07-07T08:04:07.730Z,1.50
2018-07-07T08:06:35.120Z,1.90
2018-07-07T08:09:02.626Z,1.27
2018-07-07T08:11:29.898Z,1.20
2018-07-07T08:13:57.334Z,1.60
2018-07-07T08:16:24.588Z,1.20
2018-07-07T08:18:51.845Z,1.80
2018-07-07T08:21:19.195Z,1.50
2018-07-07T08:23:46.535Z,1.33
2018-07-07T08:26:13.837Z,1.27
2018-07-07T08:28:41.173Z,0.90
2018-07-07T08:31:08.543Z,1.30
2018-07-07T08:33:35.886Z,1.20
2018-07-07T08:36:03.278Z,1.20
2018-07-07T08:38:30.637Z,1.10
2018-07-07T08:40:58.041Z,1.60
2018-07-07T08:43:25.386Z,1.70
2018-07-07T08:45:52.716Z,1.40
2018-07-07T08:48:20.126Z,1.43
2018-07-07T08:50:47.461Z,1.30
2018-07-07T08:53:14.786Z,1.20
2018-07-07T08:55:42.226Z,1.30
2018-07-07T08:58:09.613Z,1.73
2018-07-07T09:00:36.907Z,1.60
2018-07-07T09:03:05.714Z,1.27
2018-07-07T09:05:33.312Z,1.70
2018-07-07T09:08:00.906Z,1.50
2018-07-07T09:10:28.354Z,1.50
2018-07-07T09:12:55.995Z,1.67
2018-07-07T09:15:23.225Z,1.67
2018-07-07T09:17:51.009Z,1.80
2018-07-07T09:20:18.731Z,1.93
2018-07-07T09:22:46.046Z,2.13
2018-07-07T09:25:13.413Z,2.43
2018-07-07T09:27:40.753Z,1.73
2018-07-07T09:30:08.152Z,3.40
2018-07-07T09:32:35.549Z,2.20
2018-07-07T09:35:02.972Z,1.90
2018-07-07T09:37:30.275Z,2.13
2018-07-07T09:39:57.802Z,1.73
2018-07-07T09:42:25.131Z,2.43
2018-07-07T09:44:52.445Z,3.00
2018-07-07T09:47:19.969Z,2.47
2018-07-07T09:49:47.231Z,3.07
2018-07-07T09:52:14.550Z,2.90
2018-07-07T09:54:41.830Z,3.67
2018-07-07T09:57:09.150Z,3.47
2018-07-07T09:59:36.577Z,2.30
2018-07-07T10:02:03.887Z,3.60
2018-07-07T10:04:31.227Z,4.30
2018-07-07T10:06:58.474Z,3.53
2018-07-07T10:09:25.779Z,3.20
2018-07-07T10:11:53.111Z,3.27
2018-07-07T10:14:20.440Z,3.10
2018-07-07T10:16:47.851Z,3.70
2018-07-07T10:19:15.129Z,3.57
2018-07-07T10:21:42.411Z,3.27
2018-07-07T10:24:09.709Z,2.70
2018-07-07T10:26:37.042Z,3.47
2018-07-07T10:29:04.668Z,3.57
2018-07-07T10:31:31.955Z,2.90
2018-07-07T10:33:59.242Z,2.50
2018-07-07T10:36:26.611Z,2.80
2018-07-07T10:38:53.903Z,2.63
2018-07-07T10:41:21.179Z,3.23
2018-07-07T10:43:48.549Z,3.00
2018-07-07T10:46:15.897Z,2.77
2018-07-07T10:48:43.153Z,2.53
2018-07-07T10:51:10.482Z,3.07
2018-07-07T10:53:37.849Z,2.70
2018-07-07T10:56:05.230Z,2.70
2018-07-07T10:58:32.605Z,2.47
2018-07-07T11:00:59.919Z,2.67
2018-07-07T11:03:27.266Z,2.73
2018-07-07T11:05:54.716Z,2.63
2018-07-07T11:08:22.019Z,2.77
2018-07-07T11:10:49.287Z,2.30
2018-07-07T11:13:16.577Z,2.50
2018-07-07T11:15:43.934Z,2.20
2018-07-07T11:18:11.286Z,2.30
2018-07-07T11:20:38.590Z,2.23
2018-07-07T11:23:05.929Z,2.03
2018-07-07T11:25:33.261Z,2.30
2018-07-07T11:28:00.497Z,2.40
2018-07-07T11:30:27.827Z,2.20
2018-07-07T11:32:55.186Z,2.93
2018-07-07T11:35:22.490Z,2.73
2018-07-07T11:37:50.342Z,2.80
2018-07-07T11:40:17.774Z,7.10
2018-07-07T11:42:45.165Z,3.57
2018-07-07T11:45:12.518Z,3.67
2018-07-07T11:47:40.029Z,4.13
2018-07-07T11:50:07.557Z,3.80
2018-07-07T11:52:34.801Z,3.20
2018-07-07T11:55:02.119Z,2.77
2018-07-07T11:57:29.462Z,3.20
2018-07-07T11:59:56.775Z,3.13
2018-07-07T12:02:24.061Z,2.73
2018-07-07T12:04:51.369Z,2.97
2018-07-07T12:07:18.661Z,3.80
2018-07-07T12:09:45.951Z,5.87
2018-07-07T12:12:13.309Z,4.90
2018-07-07T12:14:40.626Z,6.17
2018-07-07T12:17:07.979Z,12.40
2018-07-07T12:19:35.299Z,17.30
2018-07-07T12:22:02.694Z,22.07
2018-07-07T12:24:30.008Z,15.90
2018-07-07T12:26:57.301Z,18.10
2018-07-07T12:29:24.665Z,8.97
2018-07-07T12:31:52.016Z,16.10
2018-07-07T12:34:19.301Z,12.50
2018-07-07T12:36:46.624Z,13.47
2018-07-07T12:39:14.130Z,15.50
2018-07-07T12:41:41.458Z,8.90
2018-07-07T12:44:08.734Z,6.90
2018-07-07T12:46:36.049Z,8.13
2018-07-07T12:49:03.464Z,4.93
2018-07-07T12:51:30.722Z,6.40
2018-07-07T12:53:58.061Z,5.60
2018-07-07T12:56:25.286Z,8.40
2018-07-07T12:58:52.574Z,8.40
2018-07-07T13:01:20.034Z,6.73
2018-07-07T13:03:47.358Z,7.10
2018-07-07T13:06:14.742Z,5.83
2018-07-07T13:08:42.132Z,3.90
2018-07-07T13:11:09.441Z,3.90
2018-07-07T13:13:36.808Z,4.97
2018-07-07T13:16:04.448Z,3.83
2018-07-07T13:18:31.782Z,5.20
2018-07-07T13:20:59.158Z,4.73
2018-07-07T13:23:26.566Z,4.20
2018-07-07T13:25:54.493Z,3.17
2018-07-07T13:28:21.838Z,4.10
2018-07-07T13:30:49.218Z,4.33
2018-07-07T13:33:16.497Z,3.80
2018-07-07T13:35:43.855Z,3.40
2018-07-07T13:38:11.158Z,3.77
2018-07-07T13:40:38.443Z,3.60
2018-07-07T13:43:05.985Z,3.50
2018-07-07T13:45:33.301Z,2.80
2018-07-07T13:48:00.659Z,3.33
2018-07-07T13:50:28.003Z,3.37
2018-07-07T13:52:55.269Z,3.30
2018-07-07T13:55:22.507Z,3.00
2018-07-07T13:57:50.043Z,3.20
2018-07-07T14:00:17.362Z,3.03
2018-07-07T14:02:44.618Z,3.03
2018-07-07T14:05:12.108Z,3.20
2018-07-07T14:07:39.421Z,3.53
2018-07-07T14:10:06.685Z,4.10
2018-07-07T14:12:34.111Z,3.30
2018-07-07T14:15:01.422Z,2.90
2018-07-07T14:17:28.757Z,3.30
2018-07-07T14:19:55.986Z,2.93
2018-07-07T14:22:23.235Z,2.90
2018-07-07T14:24:50.537Z,2.60
2018-07-07T14:27:17.892Z,2.83
2018-07-07T14:29:45.221Z,3.03
2018-07-07T14:32:12.520Z,2.97
2018-07-07T14:34:39.961Z,3.63
2018-07-07T14:37:07.284Z,4.10
2018-07-07T14:39:58.437Z,2.87
2018-07-07T14:42:43.795Z,2.83
2018-07-07T14:45:16.515Z,3.37
2018-07-07T14:47:45.227Z,3.23
2018-07-07T14:50:13.294Z,3.20
2018-07-07T14:52:40.864Z,2.90
2018-07-07T14:55:08.249Z,2.30
2018-07-07T14:57:36.020Z,3.00
2018-07-07T15:00:03.887Z,2.73
2018-07-07T15:02:31.111Z,2.40
2018-07-07T15:04:58.371Z,2.70
2018-07-07T15:07:26.014Z,2.70
2018-07-07T15:09:53.670Z,2.50
2018-07-07T15:12:20.938Z,3.00
2018-07-07T15:14:48.290Z,2.37
2018-07-07T15:17:15.626Z,2.57
2018-07-07T15:19:42.897Z,2.60
2018-07-07T15:22:10.205Z,2.00
2018-07-07T15:24:37.521Z,2.30
2018-07-07T15:27:04.945Z,2.70
2018-07-07T15:29:32.230Z,1.90
2018-07-07T15:31:59.462Z,2.57
2018-07-07T15:34:26.855Z,1.93
2018-07-07T15:36:54.338Z,2.17
2018-07-07T15:39:21.718Z,2.30
2018-07-07T15:41:48.973Z,2.10
2018-07-07T15:44:16.290Z,2.40
2018-07-07T15:46:43.598Z,2.50
2018-07-07T15:49:10.918Z,1.80
2018-07-07T15:51:40.520Z,2.00
2018-07-07T15:54:09.601Z,2.00
2018-07-07T15:56:38.721Z,2.20
2018-07-07T15:59:07.747Z,2.43
2018-07-07T16:01:36.850Z,2.20
2018-07-07T16:04:06.223Z,1.60
2018-07-07T16:06:35.340Z,1.70
2018-07-07T16:09:05.164Z,1.63
2018-07-07T16:11:32.443Z,2.40
2018-07-07T16:13:59.809Z,2.33
2018-07-07T16:16:27.170Z,2.07
2018-07-07T16:18:54.504Z,1.77
2018-07-07T16:21:21.835Z,2.20
2018-07-07T16:23:49.133Z,1.80
2018-07-07T16:26:16.446Z,2.00
2018-07-07T16:28:43.766Z,2.50
2018-07-07T16:31:11.196Z,2.00
2018-07-07T16:33:38.623Z,2.13
2018-07-07T16:36:05.920Z,1.70
2018-07-07T16:38:33.286Z,1.60
2018-07-07T16:41:00.646Z,1.80
2018-07-07T16:43:28.002Z,2.47
2018-07-07T16:45:55.284Z,2.00
2018-07-07T16:48:22.654Z,2.10
2018-07-07T16:50:50.073Z,2.40
2018-07-07T16:53:17.453Z,2.20
2018-07-07T16:55:45.886Z,1.70
2018-07-07T16:58:14.000Z,1.90
2018-07-07T17:00:41.323Z,2.07
2018-07-07T17:03:08.706Z,1.70
2018-07-07T17:05:36.105Z,2.00
2018-07-07T17:08:03.426Z,4.80
2018-07-07T17:10:30.889Z,8.70
2018-07-07T17:12:58.389Z,6.03
2018-07-07T17:15:26.183Z,3.00
2018-07-07T17:17:54.105Z,2.50
2018-07-07T17:20:21.880Z,2.33
2018-07-07T17:22:49.786Z,1.33
2018-07-07T17:25:17.449Z,1.57
2018-07-07T17:27:44.770Z,1.80
2018-07-07T17:30:12.204Z,1.60
2018-07-07T17:32:39.752Z,2.37
2018-07-07T17:35:07.221Z,1.67
2018-07-07T17:37:34.861Z,1.80
2018-07-07T17:40:02.573Z,1.50
2018-07-07T17:42:29.910Z,1.63
2018-07-07T17:44:58.972Z,1.60
2018-07-07T17:47:26.882Z,1.47
2018-07-07T17:49:54.310Z,1.83
2018-07-07T17:52:21.857Z,2.00
2018-07-07T17:54:49.240Z,1.60
2018-07-07T17:57:16.562Z,2.17
2018-07-07T17:59:44.022Z,1.83
2018-07-07T18:02:11.425Z,1.67
2018-07-07T18:04:38.823Z,1.70
2018-07-07T18:07:06.116Z,1.60
2018-07-07T18:09:33.467Z,1.50
2018-07-07T18:12:00.719Z,2.03
2018-07-07T18:14:28.063Z,1.90
2018-07-07T18:16:55.326Z,1.53
2018-07-07T18:19:22.598Z,1.77
2018-07-07T18:21:50.002Z,1.70
2018-07-07T18:24:17.322Z,1.63
2018-07-07T18:26:44.611Z,1.60
2018-07-07T18:29:11.922Z,1.80
2018-07-07T18:31:39.197Z,1.67
2018-07-07T18:34:06.443Z,1.60
2018-07-07T18:36:33.754Z,1.50
2018-07-07T18:39:01.049Z,1.70
2018-07-07T18:41:28.389Z,2.17
2018-07-07T18:43:55.697Z,5.00
2018-07-07T18:46:23.046Z,4.47
2018-07-07T18:48:50.391Z,5.70
2018-07-07T18:51:17.650Z,4.45
2018-07-07T18:53:44.978Z,3.60
2018-07-07T18:56:12.200Z,2.20
2018-07-07T18:58:42.216Z,1.70
2018-07-07T19:01:11.852Z,1.70
2018-07-07T19:03:39.247Z,1.73
2018-07-07T19:06:06.767Z,2.00
2018-07-07T19:08:34.026Z,1.70
2018-07-07T19:11:01.394Z,1.70
2018-07-07T19:13:28.793Z,1.50
2018-07-07T19:15:56.282Z,1.90
2018-07-07T19:18:23.646Z,1.87
2018-07-07T19:20:56.638Z,1.87
2018-07-07T19:23:29.721Z,2.00
2018-07-07T19:26:02.589Z,1.70
2018-07-07T19:28:29.849Z,1.67
2018-07-07T19:30:57.150Z,1.43
2018-07-07T19:33:30.150Z,1.70
2018-07-07T19:36:03.138Z,1.70
2018-07-07T19:38:30.486Z,1.93
2018-07-07T19:40:57.802Z,1.50
2018-07-07T19:43:25.277Z,1.63
2018-07-07T19:45:52.766Z,1.63
2018-07-07T19:48:20.086Z,1.80
2018-07-07T19:50:47.585Z,1.77
2018-07-07T19:53:14.858Z,2.13
2018-07-07T19:55:42.161Z,1.77
2018-07-07T19:58:09.467Z,1.47
2018-07-07T20:00:37.031Z,1.90
2018-07-07T20:03:04.351Z,1.83
2018-07-07T20:05:31.758Z,1.97
2018-07-07T20:07:59.130Z,3.20
2018-07-07T20:10:26.414Z,2.10
2018-07-07T20:12:53.896Z,1.80
2018-07-07T20:15:31.379Z,1.80
2018-07-07T20:17:59.013Z,1.83
2018-07-07T20:20:33.104Z,1.70
2018-07-07T20:23:01.459Z,2.10
2018-07-07T20:25:28.909Z,1.80
2018-07-07T20:28:01.886Z,2.50
2018-07-07T20:30:29.202Z,1.80
2018-07-07T20:32:56.539Z,1.50
2018-07-07T20:35:23.785Z,1.93
2018-07-07T20:37:51.139Z,1.57
2018-07-07T20:40:18.531Z,1.67
2018-07-07T20:42:45.795Z,1.53
2018-07-07T20:45:13.170Z,1.90
2018-07-07T20:47:40.461Z,1.57
2018-07-07T20:50:07.761Z,1.70
2018-07-07T20:52:35.050Z,1.93
2018-07-07T20:55:02.405Z,2.00
2018-07-07T20:57:29.746Z,2.60
2018-07-07T20:59:57.068Z,5.83
2018-07-07T21:02:24.389Z,2.77
2018-07-07T21:04:51.731Z,4.00
2018-07-07T21:07:19.167Z,4.67
2018-07-07T21:09:46.443Z,3.57
2018-07-07T21:12:13.852Z,3.20
2018-07-07T21:14:41.209Z,2.70
2018-07-07T21:17:08.524Z,3.20
2018-07-07T21:19:35.878Z,2.13
2018-07-07T21:22:03.190Z,2.50
2018-07-07T21:24:30.568Z,1.70
2018-07-07T21:26:57.947Z,2.07
2018-07-07T21:29:25.266Z,1.53
2018-07-07T21:31:52.621Z,2.03
2018-07-07T21:34:19.877Z,1.90
2018-07-07T21:36:47.465Z,1.67
2018-07-07T21:39:14.993Z,1.60
2018-07-07T21:41:42.459Z,2.23
2018-07-07T21:44:09.833Z,1.93
2018-07-07T21:46:37.263Z,1.87
2018-07-07T21:49:04.640Z,1.83
2018-07-07T21:51:31.961Z,1.90
2018-07-07T21:53:59.364Z,1.63
2018-07-07T21:56:26.834Z,1.90
2018-07-07T21:58:59.736Z,2.20
2018-07-07T22:01:44.132Z,1.70
2018-07-07T22:04:17.044Z,1.60
2018-07-07T22:06:49.926Z,2.10
2018-07-07T22:09:17.202Z,1.90
2018-07-07T22:11:44.565Z,2.10
2018-07-07T22:14:11.919Z,1.43
2018-07-07T22:16:39.226Z,1.60
2018-07-07T22:19:06.454Z,2.10
2018-07-07T22:21:44.918Z,1.80
2018-07-07T22:24:12.261Z,1.73
2018-07-07T22:26:39.766Z,1.53
2018-07-07T22:29:07.155Z,1.80
2018-07-07T22:31:34.763Z,2.00
2018-07-07T22:34:02.187Z,1.70
2018-07-07T22:36:33.670Z,1.90
2018-07-07T22:39:01.246Z,1.80
2018-07-07T22:41:41.016Z,1.73
2018-07-07T22:44:11.085Z,1.73
2018-07-07T22:46:39.876Z,1.87
2018-07-07T22:49:07.193Z,1.80
2018-07-07T22:51:34.449Z,1.60
2018-07-07T22:54:01.973Z,2.00
2018-07-07T22:56:29.249Z,4.80
2018-07-07T22:58:56.583Z,6.40
2018-07-07T23:01:23.819Z,5.83
2018-07-07T23:03:51.019Z,4.27
2018-07-07T23:06:18.403Z,4.27
2018-07-07T23:08:45.731Z,2.30
2018-07-07T23:11:13.001Z,1.70
2018-07-07T23:13:40.281Z,2.43
2018-07-07T23:16:07.502Z,2.13
2018-07-07T23:18:34.818Z,1.83
2018-07-07T23:21:02.158Z,1.63
2018-07-07T23:23:29.475Z,1.87
2018-07-07T23:25:56.892Z,1.93
2018-07-07T23:28:24.238Z,2.00
2018-07-07T23:30:51.582Z,1.70
2018-07-07T23:33:18.861Z,1.90
2018-07-07T23:35:46.108Z,2.00
2018-07-07T23:38:13.405Z,1.70
2018-07-07T23:40:40.650Z,1.70
2018-07-07T23:43:07.974Z,1.83
2018-07-07T23:45:35.317Z,2.47
2018-07-07T23:48:02.570Z,1.97
2018-07-07T23:50:29.870Z,2.07
2018-07-07T23:52:57.208Z,2.00
2018-07-07T23:55:24.514Z,2.13
2018-07-07T23:57:51.761Z,2.03
